Danville, Maine
Current Conditions -  °F | °C
As of 12:55 PM on Friday 28 Nov 2014 (Local Time) from KLEW Reporting Station
Broken Clouds Broken Clouds  
Wind Chill: 22°   Ceiling: 3300
Heat Index: 28°   Visibility: 10mi
Dew Point: 19°   Wind: 6mph
Humidity: 69%   Direction: 280°W
Pressure: 30.01"   Gusts: NA
Location:  44.02°N, 70.26°W
Report Text: KLEW 281755Z AUTO 28005KT 10SM SCT027 BKN033 M02/M07 A3001 RMK AO1 60001 11010 21060 57010
Loading
Personal Weather Stations






























Interactive Weather Map New forecast layout! Learn more

10-Day Weather Forecast

Advertisements
Track Severe Weather on mobile